Pine Meadow, Connecticut
Current Conditions -  °F | °C
As of 2:51 AM on Monday 24 Nov 2014 (Local Time) from KBDL Reporting Station
Overcast Overcast  
Wind Chill: 41°   Ceiling: 4700
Heat Index: 44°   Visibility: 10mi
Dew Point: 33°   Wind: 6mph
Humidity: 65%   Direction: 10°N
Pressure: 29.95"   Gusts: NA
Location:  41.88°N, 72.97°W
Report Text: KBDL 240751Z 01005KT 10SM SCT032 BKN047 OVC055 07/01 A2995 RMK AO2 SLP141 T00670006
Loading
Personal Weather Stations






























Interactive Weather Map New forecast layout! Learn more

10-Day Weather Forecast

Advertisements
Track Severe Weather on mobile